Time;durP1;ratioP1;P1;durP2;ratioP2;P2;SDS_P1;SDS_P2;PMS_P1;PMS_P2;Temp;Humidity;BMP_temperature;BMP_pressure;BME280_temperature;BME280_humidity;BME280_pressure;Samples;Min_cycle;Max_cycle;Signal;HPM_P1;HPM_P2
2023/09/12 00:00:48;;;;;;;20.30;16.40;;;;;;;16.12;75.96;97072.55;104907;1259;98369;-78
2023/09/12 00:03:36;;;;;;;23.60;16.40;;;;;;;16.12;75.92;97071.73;104816;1257;104844;-78
2023/09/12 00:06:05;;;;;;;21.50;15.40;;;;;;;16.09;75.93;97072.73;104526;1255;101364;-78
2023/09/12 00:08:32;;;;;;;19.60;15.70;;;;;;;16.08;75.83;97070.27;104869;1259;100183;-78
2023/09/12 00:11:11;;;;;;;19.60;15.90;;;;;;;16.06;75.90;97070.80;104799;1260;98004;-78
2023/09/12 00:13:40;;;;;;;19.70;16.90;;;;;;;16.05;75.80;97069.42;104820;1260;98423;-79
2023/09/12 00:16:09;;;;;;;20.70;15.20;;;;;;;16.02;75.96;97064.94;104599;1263;103646;-77
2023/09/12 00:18:38;;;;;;;17.50;15.60;;;;;;;16.02;75.91;97067.21;104324;1278;99985;-78
2023/09/12 00:21:05;;;;;;;19.30;16.00;;;;;;;16.01;75.97;97068.08;104840;1275;106967;-78
2023/09/12 00:23:33;;;;;;;21.10;15.40;;;;;;;15.99;76.22;97070.23;104800;1257;99147;-78
2023/09/12 00:26:01;;;;;;;21.00;15.40;;;;;;;15.98;76.23;97071.13;104748;1260;97933;-78
2023/09/12 00:28:28;;;;;;;16.90;14.90;;;;;;;15.98;76.15;97070.64;104521;1276;102629;-78
2023/09/12 00:30:56;;;;;;;17.80;15.30;;;;;;;15.97;76.28;97069.48;104540;1263;101368;-73
2023/09/12 00:33:24;;;;;;;17.40;14.90;;;;;;;15.95;76.20;97066.30;104477;1260;99867;-73
2023/09/12 00:35:51;;;;;;;17.50;15.20;;;;;;;15.93;76.24;97067.81;104494;1262;98107;-73
2023/09/12 00:38:19;;;;;;;17.60;15.20;;;;;;;15.86;76.46;97067.55;104585;1263;99165;-74
2023/09/12 00:40:47;;;;;;;18.10;16.20;;;;;;;15.74;76.83;97070.34;104505;1261;102641;-74
2023/09/12 00:43:15;;;;;;;20.20;15.90;;;;;;;15.68;77.06;97070.16;104420;1276;101090;-73
2023/09/12 00:45:43;;;;;;;19.00;16.10;;;;;;;15.65;77.33;97068.22;104510;1260;100172;-74
2023/09/12 00:48:11;;;;;;;20.20;16.80;;;;;;;15.61;77.56;97069.14;104512;1259;99283;-73
2023/09/12 00:50:40;;;;;;;21.10;17.10;;;;;;;15.52;77.95;97070.18;104507;1264;98505;-73
2023/09/12 00:53:09;;;;;;;19.10;16.40;;;;;;;15.45;77.78;97066.55;104670;1263;103445;-73
2023/09/12 00:55:40;;;;;;;21.50;17.10;;;;;;;15.46;77.98;97063.89;104480;1263;100354;-73
2023/09/12 00:58:08;;;;;;;19.80;16.00;;;;;;;15.47;78.09;97064.77;104369;1267;100260;-73
2023/09/12 01:00:36;;;;;;;20.20;16.60;;;;;;;15.46;78.11;97066.60;104827;1259;97930;-78
2023/09/12 01:03:04;;;;;;;21.00;16.20;;;;;;;15.47;77.93;97063.46;104857;1259;98409;-78
2023/09/12 01:05:31;;;;;;;20.20;15.80;;;;;;;15.51;77.88;97060.09;104810;1259;103543;-73
2023/09/12 01:08:02;;;;;;;17.60;15.70;;;;;;;15.53;77.87;97054.41;104743;1261;101375;-74
2023/09/12 01:10:29;;;;;;;18.90;15.60;;;;;;;15.54;77.73;97055.76;104840;1278;99988;-74
2023/09/12 01:12:57;;;;;;;17.80;14.90;;;;;;;15.57;77.56;97056.52;104803;1259;98981;-74
2023/09/12 01:15:25;;;;;;;18.80;14.70;;;;;;;15.60;77.54;97054.63;104865;1268;98450;-78
2023/09/12 01:17:53;;;;;;;17.80;14.80;;;;;;;15.62;77.45;97053.41;104806;1259;102235;-79
2023/09/12 01:20:27;;;;;;;17.90;14.90;;;;;;;15.62;77.52;97052.05;104753;1259;100403;-79
2023/09/12 01:23:05;;;;;;;16.40;14.50;;;;;;;15.61;77.55;97056.23;104561;1257;99552;-73
2023/09/12 01:25:55;;;;;;;17.40;14.20;;;;;;;15.58;77.47;97058.05;104837;1256;98505;-81
2023/09/12 01:28:25;;;;;;;15.50;13.90;;;;;;;15.57;77.50;97052.15;104685;1260;98971;-81
2023/09/12 01:30:53;;;;;;;19.40;14.90;;;;;;;15.56;77.36;97051.00;104769;1271;102100;-81
2023/09/12 01:33:21;;;;;;;17.10;14.70;;;;;;;15.57;77.31;97053.64;104862;1260;101776;-81
2023/09/12 01:35:49;;;;;;;20.70;15.70;;;;;;;15.58;77.24;97055.87;104530;1262;99055;-80
2023/09/12 01:38:16;;;;;;;16.10;14.40;;;;;;;15.57;77.26;97056.69;104726;1259;97902;-82
2023/09/12 01:40:54;;;;;;;20.20;14.40;;;;;;;15.56;77.27;97058.35;104795;1260;98469;-81
2023/09/12 01:43:24;;;;;;;17.50;14.50;;;;;;;15.52;77.23;97056.80;104584;1262;103576;-78
2023/09/12 01:45:58;;;;;;;18.30;14.60;;;;;;;15.48;77.23;97062.70;104590;1265;102678;-73
2023/09/12 01:48:33;;;;;;;18.70;14.30;;;;;;;15.39;77.36;97063.08;104820;1271;99741;-73
2023/09/12 01:51:02;;;;;;;19.10;14.70;;;;;;;15.34;77.57;97061.33;104547;1263;98102;-73
2023/09/12 01:53:32;;;;;;;18.80;15.30;;;;;;;15.36;77.51;97061.27;104820;1272;99147;-73
2023/09/12 01:56:01;;;;;;;19.30;15.10;;;;;;;15.38;77.39;97059.30;104907;1268;103466;-73
2023/09/12 01:58:30;;;;;;;17.70;14.30;;;;;;;15.39;77.46;97063.08;104805;1259;101515;-73
2023/09/12 02:00:57;;;;;;;17.40;14.60;;;;;;;15.36;77.35;97061.35;104991;1259;100094;-78
2023/09/12 02:03:25;;;;;;;16.90;14.30;;;;;;;15.35;77.27;97060.13;104734;1259;98877;-74
2023/09/12 02:05:53;;;;;;;17.70;14.70;;;;;;;15.35;77.31;97060.25;104694;1273;99157;-73
2023/09/12 02:08:20;;;;;;;16.90;13.80;;;;;;;15.34;77.32;97059.40;104801;1262;112038;-73
2023/09/12 02:10:48;;;;;;;18.10;14.20;;;;;;;15.32;77.24;97061.15;104505;1262;101359;-74
2023/09/12 02:13:15;;;;;;;15.70;13.20;;;;;;;15.29;77.24;97061.18;104499;1275;99395;-74
2023/09/12 02:15:43;;;;;;;16.30;13.10;;;;;;;15.27;77.22;97062.36;104491;1262;98021;-81
2023/09/12 02:18:11;;;;;;;16.80;14.00;;;;;;;15.25;77.28;97065.04;104487;1262;99467;-81
2023/09/12 02:20:40;;;;;;;17.80;13.10;;;;;;;15.22;77.33;97062.93;104512;1263;102664;-73
2023/09/12 02:23:08;;;;;;;15.20;13.30;;;;;;;15.20;77.32;97061.98;104269;1267;100326;-73
2023/09/12 02:25:36;;;;;;;14.50;12.00;;;;;;;15.16;77.20;97061.27;104517;1278;100172;-73
2023/09/12 02:28:04;;;;;;;13.80;12.30;;;;;;;15.12;77.24;97062.33;104414;1262;99398;-73
2023/09/12 02:30:31;;;;;;;12.80;11.60;;;;;;;15.11;77.21;97059.83;104519;1263;99339;-81
2023/09/12 02:32:59;;;;;;;14.20;12.40;;;;;;;15.11;77.24;97058.25;104484;1264;103809;-82
2023/09/12 02:35:28;;;;;;;17.20;12.20;;;;;;;15.11;77.28;97060.25;104503;1262;101052;-81
2023/09/12 02:37:56;;;;;;;15.00;13.30;;;;;;;15.08;77.32;97060.83;104519;1262;99813;-81
2023/09/12 02:40:24;;;;;;;16.30;13.30;;;;;;;15.07;77.26;97060.38;104507;1274;98021;-81
2023/09/12 02:42:52;;;;;;;16.30;13.80;;;;;;;15.05;77.18;97057.84;104662;1267;99253;-81
2023/09/12 02:45:19;;;;;;;17.30;13.40;;;;;;;15.05;77.20;97057.45;104839;1258;102598;-81
2023/09/12 02:47:49;;;;;;;15.30;13.60;;;;;;;15.05;77.31;97055.61;104817;1259;100164;-81
2023/09/12 02:50:17;;;;;;;17.80;13.70;;;;;;;14.96;77.42;97055.19;104804;1256;100167;-81
2023/09/12 02:52:45;;;;;;;17.30;14.40;;;;;;;14.88;77.53;97053.41;104793;1276;98230;-81
2023/09/12 02:55:13;;;;;;;16.40;14.70;;;;;;;14.86;77.57;97051.98;104857;1254;98363;-80
2023/09/12 02:57:40;;;;;;;16.60;14.10;;;;;;;14.86;77.58;97056.86;104877;1260;102276;-81
2023/09/12 03:00:09;;;;;;;18.40;15.10;;;;;;;14.87;77.62;97052.04;104774;1259;100354;-73
2023/09/12 03:02:36;;;;;;;15.60;13.90;;;;;;;14.85;77.75;97057.89;104744;1270;98961;-79
2023/09/12 03:05:05;;;;;;;13.20;11.80;;;;;;;14.77;77.61;97059.11;104823;1259;99120;-78
2023/09/12 03:07:32;;;;;;;16.70;12.70;;;;;;;14.68;77.71;97057.98;104795;1259;98408;-78
2023/09/12 03:10:00;;;;;;;13.90;12.30;;;;;;;14.66;77.93;97058.17;104793;1259;102707;-79
2023/09/12 03:12:28;;;;;;;14.60;11.90;;;;;;;14.66;77.98;97059.20;104887;1259;100336;-78
2023/09/12 03:14:57;;;;;;;18.00;12.40;;;;;;;14.66;77.88;97060.08;104730;1259;100021;-79
2023/09/12 03:17:24;;;;;;;14.80;13.20;;;;;;;14.61;77.84;97061.73;104872;1259;97959;-79
2023/09/12 03:19:52;;;;;;;16.50;13.50;;;;;;;14.59;77.98;97062.02;104845;1254;98354;-80
2023/09/12 03:22:20;;;;;;;16.70;13.00;;;;;;;14.61;77.94;97061.34;104839;1259;103249;-79
2023/09/12 03:24:47;;;;;;;14.10;12.70;;;;;;;14.59;77.94;97062.13;104857;1259;100276;-80
2023/09/12 03:27:15;;;;;;;15.10;13.10;;;;;;;14.53;77.93;97063.44;104828;1270;100285;-80
2023/09/12 03:29:43;;;;;;;15.90;13.60;;;;;;;14.54;78.08;97063.34;104791;1270;97960;-80
2023/09/12 03:32:10;;;;;;;15.40;13.10;;;;;;;14.54;78.10;97061.27;104792;1261;99200;-74
2023/09/12 03:34:38;;;;;;;17.20;14.00;;;;;;;14.54;78.02;97060.50;104818;1260;103610;-74
2023/09/12 03:37:06;;;;;;;15.70;14.10;;;;;;;14.54;77.92;97061.27;104860;1257;101740;-74
2023/09/12 03:39:33;;;;;;;16.50;14.20;;;;;;;14.54;78.14;97063.23;104728;1259;100092;-80
2023/09/12 03:42:01;;;;;;;16.10;14.20;;;;;;;14.55;78.22;97067.54;104762;1259;98011;-81
2023/09/12 03:44:29;;;;;;;15.30;13.70;;;;;;;14.54;78.30;97069.20;104851;1259;99607;-80
2023/09/12 03:46:57;;;;;;;20.40;14.60;;;;;;;14.53;78.28;97070.38;104843;1272;103831;-80
2023/09/12 03:49:25;;;;;;;17.40;13.80;;;;;;;14.52;78.29;97071.45;104581;1269;111127;-80
2023/09/12 03:51:53;;;;;;;14.60;13.10;;;;;;;14.51;78.21;97065.95;104840;1259;99271;-81
2023/09/12 03:54:21;;;;;;;14.00;12.40;;;;;;;14.52;78.13;97069.15;104760;1260;97980;-81
2023/09/12 03:56:48;;;;;;;16.40;13.40;;;;;;;14.51;78.08;97068.66;104776;1259;98450;-79
2023/09/12 03:59:16;;;;;;;20.10;15.20;;;;;;;14.46;78.17;97067.86;104872;1273;103393;-77
2023/09/12 04:01:44;;;;;;;18.80;15.00;;;;;;;14.37;78.27;97073.70;105148;1253;100363;-80
2023/09/12 04:04:12;;;;;;;17.50;14.70;;;;;;;14.32;78.44;97075.56;104833;1259;107523;-80
2023/09/12 04:06:39;;;;;;;17.80;14.70;;;;;;;14.31;78.49;97071.03;104748;1260;98063;-80
2023/09/12 04:09:07;;;;;;;18.80;14.90;;;;;;;14.34;78.54;97074.84;104774;1259;99606;-80
2023/09/12 04:11:35;;;;;;;16.70;14.80;;;;;;;14.36;78.50;97078.36;104779;1259;102115;-79
2023/09/12 04:14:03;;;;;;;16.40;14.50;;;;;;;14.36;78.61;97079.38;104883;1257;100381;-80
2023/09/12 04:16:30;;;;;;;19.20;14.80;;;;;;;14.33;78.57;97080.92;104762;1272;99028;-80
2023/09/12 04:18:58;;;;;;;17.00;14.50;;;;;;;14.29;78.66;97077.07;104714;1259;97921;-80
2023/09/12 04:21:26;;;;;;;15.80;14.10;;;;;;;14.28;78.66;97075.38;104788;1259;98607;-80
2023/09/12 04:23:53;;;;;;;17.50;14.10;;;;;;;14.29;78.55;97075.33;104743;1272;102672;-79
2023/09/12 04:26:21;;;;;;;20.00;15.70;;;;;;;14.29;78.57;97073.27;104805;1255;100228;-80
2023/09/12 04:28:49;;;;;;;31.70;23.70;;;;;;;14.27;78.73;97073.45;104780;1260;108037;-79
2023/09/12 04:31:16;;;;;;;31.30;21.00;;;;;;;14.15;78.84;97079.09;104809;1260;98013;-75
2023/09/12 04:33:44;;;;;;;25.40;20.10;;;;;;;14.09;78.86;97080.37;104810;1259;97918;-75
2023/09/12 04:36:12;;;;;;;27.20;21.10;;;;;;;14.11;79.01;97082.98;104815;1259;103748;-77
2023/09/12 04:38:39;;;;;;;28.80;22.20;;;;;;;14.13;79.15;97083.11;104740;1271;100362;-78
2023/09/12 04:41:07;;;;;;;34.40;25.90;;;;;;;14.15;79.17;97085.05;104829;1261;99055;-78
2023/09/12 04:43:35;;;;;;;27.10;21.90;;;;;;;14.15;79.39;97081.84;104799;1259;98534;-78
2023/09/12 04:46:02;;;;;;;29.10;20.90;;;;;;;14.10;79.59;97079.84;104863;1255;99256;-78
2023/09/12 04:48:30;;;;;;;24.10;21.50;;;;;;;14.04;79.77;97078.86;104815;1257;102727;-78
2023/09/12 04:50:58;;;;;;;25.70;21.50;;;;;;;14.04;79.86;97077.36;104831;1259;100428;-78
2023/09/12 04:53:25;;;;;;;22.90;20.50;;;;;;;14.10;79.99;97080.02;104712;1257;99253;-78
2023/09/12 04:55:54;;;;;;;29.70;20.80;;;;;;;14.13;80.11;97078.77;104529;1262;98061;-78
2023/09/12 04:58:21;;;;;;;23.80;20.20;;;;;;;14.12;80.32;97080.27;104838;1267;98359;-75
2023/09/12 05:00:49;;;;;;;25.70;19.10;;;;;;;14.12;80.34;97078.76;104816;1255;102695;-75
2023/09/12 05:03:17;;;;;;;22.00;18.00;;;;;;;14.14;80.34;97079.83;104811;1261;101405;-75
2023/09/12 05:05:49;;;;;;;21.20;17.70;;;;;;;14.18;80.32;97084.30;104780;1259;100065;-74
2023/09/12 05:08:17;;;;;;;24.30;19.30;;;;;;;14.22;80.29;97084.23;104614;1263;98027;-74
2023/09/12 05:10:46;;;;;;;26.40;18.60;;;;;;;14.25;80.20;97088.20;104830;1260;98395;-74
2023/09/12 05:13:14;;;;;;;22.70;17.80;;;;;;;14.30;80.14;97086.59;104847;1259;103662;-75
2023/09/12 05:15:42;;;;;;;24.00;19.00;;;;;;;14.33;80.07;97085.35;104915;1258;100424;-75
2023/09/12 05:18:10;;;;;;;22.40;18.80;;;;;;;14.37;80.05;97083.46;104768;1259;99362;-75
2023/09/12 05:20:38;;;;;;;25.00;19.90;;;;;;;14.40;80.30;97082.20;104831;1259;98020;-74
2023/09/12 05:23:05;;;;;;;24.10;18.30;;;;;;;14.44;80.35;97081.13;104857;1259;99250;-75
2023/09/12 05:25:33;;;;;;;23.70;17.70;;;;;;;14.47;80.28;97084.83;104756;1259;103733;-74
2023/09/12 05:28:01;;;;;;;20.60;17.60;;;;;;;14.49;80.31;97083.99;104730;1259;100728;-74
2023/09/12 05:30:28;;;;;;;22.00;19.00;;;;;;;14.52;80.51;97082.10;104815;1259;107415;-75
2023/09/12 05:32:56;;;;;;;23.80;18.50;;;;;;;14.54;80.79;97082.56;104893;1260;97960;-78
2023/09/12 05:35:24;;;;;;;27.80;19.20;;;;;;;14.56;80.89;97077.34;104834;1259;98456;-79
2023/09/12 05:37:52;;;;;;;28.00;20.50;;;;;;;14.60;81.05;97078.92;104870;1270;103214;-77
2023/09/12 05:40:20;;;;;;;32.30;21.00;;;;;;;14.63;81.25;97081.38;104805;1259;100403;-78
2023/09/12 05:42:47;;;;;;;26.40;19.90;;;;;;;14.66;81.52;97082.90;104696;1260;100015;-78
2023/09/12 05:45:15;;;;;;;26.40;19.20;;;;;;;14.70;81.53;97085.41;104679;1259;97947;-78
2023/09/12 05:47:43;;;;;;;24.70;18.60;;;;;;;14.75;81.65;97087.45;104791;1259;98411;-77
2023/09/12 05:50:11;;;;;;;26.40;18.50;;;;;;;14.82;81.64;97088.02;104809;1257;102598;-77
2023/09/12 05:52:39;;;;;;;28.70;17.90;;;;;;;14.89;81.71;97086.20;104733;1272;100090;-78
2023/09/12 05:55:07;;;;;;;29.80;18.50;;;;;;;14.96;81.79;97089.00;104688;1259;100073;-78
2023/09/12 05:57:35;;;;;;;27.30;18.60;;;;;;;15.03;81.71;97091.83;104727;1262;98053;-78
2023/09/12 06:00:04;;;;;;;27.60;19.90;;;;;;;15.10;81.68;97088.02;104767;1259;98424;-77
2023/09/12 06:02:33;;;;;;;33.50;20.10;;;;;;;15.18;81.63;97086.75;104795;1259;103549;-78
2023/09/12 06:05:01;;;;;;;31.90;19.70;;;;;;;15.25;82.03;97086.14;104868;1260;101289;-78
2023/09/12 06:07:29;;;;;;;34.10;19.70;;;;;;;15.32;82.33;97088.38;104641;1259;152721;-78
2023/09/12 06:09:56;;;;;;;32.20;20.90;;;;;;;15.39;82.21;97086.21;104746;1261;97958;-78
2023/09/12 06:12:24;;;;;;;30.20;20.70;;;;;;;15.47;82.28;97087.23;104839;1259;97941;-78
2023/09/12 06:14:53;;;;;;;38.00;20.90;;;;;;;15.55;82.37;97087.15;104694;1257;102595;-78
2023/09/12 06:17:21;;;;;;;38.00;21.50;;;;;;;15.64;82.51;97086.30;105022;1259;101665;-78
2023/09/12 06:19:50;;;;;;;36.60;20.70;;;;;;;15.71;82.52;97089.73;104516;1262;99822;-78
2023/09/12 06:22:19;;;;;;;27.10;20.60;;;;;;;15.79;82.93;97090.17;104538;1260;99458;-78
2023/09/12 06:24:47;;;;;;;29.70;20.40;;;;;;;15.89;83.16;97092.14;104585;1264;98508;-78
2023/09/12 06:27:18;;;;;;;26.60;20.30;;;;;;;15.99;83.29;97091.35;104451;1264;103857;-78
2023/09/12 06:29:48;;;;;;;26.10;19.90;;;;;;;16.10;83.37;97091.98;104450;1275;101287;-78
2023/09/12 06:32:16;;;;;;;25.90;19.70;;;;;;;16.21;83.50;97091.79;104273;1262;98973;-78
2023/09/12 06:34:45;;;;;;;28.80;20.20;;;;;;;16.32;83.60;97091.20;104408;1265;98012;-78
2023/09/12 06:37:13;;;;;;;25.70;19.80;;;;;;;16.41;83.56;97090.52;104432;1263;98456;-78
2023/09/12 06:39:40;;;;;;;28.60;20.70;;;;;;;16.49;83.44;97095.58;104442;1265;102596;-78
2023/09/12 06:42:10;;;;;;;22.20;19.70;;;;;;;16.58;83.34;97092.73;104461;1264;101585;-78
2023/09/12 06:44:37;;;;;;;28.10;19.00;;;;;;;16.67;83.44;97089.23;104298;1260;99003;-78
2023/09/12 06:47:06;;;;;;;30.70;21.20;;;;;;;16.76;83.42;97088.08;104423;1263;98125;-78
2023/09/12 06:49:35;;;;;;;27.90;20.60;;;;;;;16.86;83.67;97091.94;104429;1265;99624;-78
2023/09/12 06:52:03;;;;;;;29.70;20.20;;;;;;;16.96;83.66;97093.93;104142;1268;103262;-78
2023/09/12 06:54:31;;;;;;;23.50;19.60;;;;;;;17.06;83.61;97094.58;104202;1271;101430;-78
2023/09/12 06:56:59;;;;;;;21.20;19.00;;;;;;;17.16;83.50;97091.48;104095;1266;100614;-78
2023/09/12 06:59:27;;;;;;;24.70;18.80;;;;;;;17.27;83.56;97089.39;104239;1265;98032;-78
2023/09/12 07:01:54;;;;;;;29.60;19.70;;;;;;;17.38;83.54;97091.16;104341;1276;98454;-78
2023/09/12 07:04:23;;;;;;;26.50;19.40;;;;;;;17.48;83.47;97095.88;104339;1263;102696;-78
2023/09/12 07:06:51;;;;;;;22.80;18.10;;;;;;;17.59;83.57;97100.27;104348;1265;100637;-78
2023/09/12 07:09:20;;;;;;;25.40;18.40;;;;;;;17.72;83.62;97100.74;104337;1265;100051;-78
2023/09/12 07:11:49;;;;;;;28.10;19.20;;;;;;;17.84;83.47;97097.59;104332;1265;99115;-78
2023/09/12 07:14:16;;;;;;;31.50;19.40;;;;;;;17.97;83.56;97096.23;104125;1268;98523;-78
2023/09/12 07:16:44;;;;;;;24.10;18.30;;;;;;;18.11;83.59;97094.88;104133;1268;103422;-78
2023/09/12 07:19:12;;;;;;;26.60;17.50;;;;;;;18.24;83.67;97092.80;104265;1268;100590;-78
2023/09/12 07:21:39;;;;;;;24.80;17.90;;;;;;;18.39;83.45;97093.89;104177;1268;98950;-79
2023/09/12 07:24:07;;;;;;;21.60;17.60;;;;;;;18.55;83.68;97093.67;104248;1260;98116;-78
2023/09/12 07:26:35;;;;;;;28.40;17.90;;;;;;;18.74;83.60;97090.84;104339;1265;98479;-78
2023/09/12 07:29:05;;;;;;;22.70;15.10;;;;;;;18.96;83.23;97086.55;104385;1266;102124;-78
2023/09/12 07:31:33;;;;;;;18.80;14.20;;;;;;;19.22;82.88;97082.55;104348;1263;100581;-75
2023/09/12 07:34:00;;;;;;;20.10;14.10;;;;;;;19.54;82.79;97081.44;104438;1273;100246;-76
2023/09/12 07:36:28;;;;;;;17.00;13.60;;;;;;;19.94;82.80;97081.20;104515;1262;98129;-76
2023/09/12 07:38:56;;;;;;;16.20;13.10;;;;;;;20.35;81.91;97083.30;104507;1263;99573;-76
2023/09/12 07:41:23;;;;;;;18.60;11.90;;;;;;;20.76;81.12;97083.35;104517;1263;103718;-76
2023/09/12 07:43:51;;;;;;;14.40;12.10;;;;;;;21.18;80.25;97080.77;104517;1262;100496;-76
2023/09/12 07:46:19;;;;;;;14.90;12.40;;;;;;;21.51;78.94;97079.16;104621;1257;100193;-76
2023/09/12 07:48:46;;;;;;;15.40;11.80;;;;;;;21.80;77.88;97077.93;104705;1259;97991;-76
2023/09/12 07:51:18;;;;;;;14.50;12.50;;;;;;;22.10;77.07;97077.13;104761;1259;98452;-76
2023/09/12 07:53:46;;;;;;;16.90;11.90;;;;;;;22.45;76.71;97073.00;104628;1262;103828;-76
2023/09/12 07:56:13;;;;;;;12.80;11.20;;;;;;;22.83;76.16;97077.71;104682;1272;100392;-76
2023/09/12 07:58:41;;;;;;;14.80;11.30;;;;;;;23.20;75.48;97075.61;104613;1257;100126;-76
2023/09/12 08:01:10;;;;;;;15.20;10.50;;;;;;;23.52;73.98;97071.17;104648;1260;98032;-76
2023/09/12 08:03:40;;;;;;;12.20;10.00;;;;;;;23.87;73.69;97071.77;104528;1274;97998;-76
2023/09/12 08:06:07;;;;;;;12.00;10.50;;;;;;;24.21;72.68;97069.89;104472;1265;103295;-76
2023/09/12 08:08:36;;;;;;;15.60;10.20;;;;;;;24.59;72.31;97070.63;104632;1271;101403;-81
2023/09/12 08:11:03;;;;;;;13.00;10.10;;;;;;;24.97;71.64;97070.22;104549;1272;99979;-80
2023/09/12 08:13:31;;;;;;;13.20;9.50;;;;;;;25.34;70.82;97065.48;104667;1263;98049;-81
2023/09/12 08:15:59;;;;;;;11.40;9.40;;;;;;;25.72;69.47;97067.62;104755;1259;97927;-81
2023/09/12 08:18:31;;;;;;;10.80;9.20;;;;;;;26.07;68.65;97067.83;104732;1259;103394;-81
2023/09/12 08:20:59;;;;;;;12.50;10.20;;;;;;;26.42;67.29;97068.11;104379;1278;100472;-81
2023/09/12 08:23:26;;;;;;;10.90;9.10;;;;;;;26.70;65.82;97068.67;104407;1265;100275;-82
2023/09/12 08:25:54;;;;;;;15.40;9.60;;;;;;;27.00;64.86;97066.53;104488;1265;98126;-76
2023/09/12 08:28:22;;;;;;;18.50;9.40;;;;;;;27.23;63.97;97064.32;104482;1264;98447;-76
2023/09/12 08:30:49;;;;;;;12.70;9.80;;;;;;;27.53;63.41;97062.05;104472;1265;102635;-76
2023/09/12 08:33:17;;;;;;;11.20;9.90;;;;;;;27.88;61.75;97060.17;104557;1259;101327;-76
2023/09/12 08:35:45;;;;;;;15.70;10.00;;;;;;;28.04;59.54;97058.29;104455;1263;98551;-77
2023/09/12 08:38:13;;;;;;;16.00;9.90;;;;;;;28.26;60.14;97057.20;104413;1261;98141;-76
2023/09/12 08:40:41;;;;;;;11.70;9.40;;;;;;;28.51;58.75;97057.27;104465;1260;98370;-77
2023/09/12 08:43:09;;;;;;;17.20;9.30;;;;;;;28.69;57.59;97055.77;104466;1265;103765;-76
2023/09/12 08:45:37;;;;;;;14.60;10.40;;;;;;;28.89;56.81;97052.77;104494;1264;100345;-77
2023/09/12 08:48:06;;;;;;;14.70;9.40;;;;;;;29.07;55.85;97051.61;104468;1264;100154;-76
2023/09/12 08:50:34;;;;;;;11.00;9.20;;;;;;;29.25;54.89;97050.45;104306;1264;98127;-76
2023/09/12 08:53:03;;;;;;;16.00;9.30;;;;;;;29.39;54.72;97052.59;104571;1260;99260;-76
2023/09/12 08:55:33;;;;;;;12.90;8.60;;;;;;;29.55;53.84;97051.14;104861;1271;103740;-77
2023/09/12 08:58:03;;;;;;;15.20;9.00;;;;;;;29.68;53.51;97050.80;104572;1262;101845;-76
2023/09/12 09:00:31;;;;;;;15.00;9.10;;;;;;;29.82;52.74;97051.11;104431;1265;100048;-77
2023/09/12 09:03:00;;;;;;;9.00;8.10;;;;;;;29.92;52.06;97052.23;104506;1264;98573;-77
2023/09/12 09:05:29;;;;;;;16.10;8.30;;;;;;;30.03;51.28;97048.92;104716;1259;99574;-81
2023/09/12 09:07:58;;;;;;;9.00;8.10;;;;;;;30.13;50.31;97043.47;104707;1259;103773;-80
2023/09/12 09:10:32;;;;;;;8.40;7.10;;;;;;;30.19;50.15;97044.61;104462;1265;100257;-81
2023/09/12 09:12:59;;;;;;;10.30;7.60;;;;;;;30.27;50.32;97045.84;104627;1259;99102;-82
2023/09/12 09:15:29;;;;;;;13.00;7.10;;;;;;;30.36;49.36;97049.61;104659;1262;99292;-82
2023/09/12 09:18:00;;;;;;;8.40;7.50;;;;;;;30.39;48.76;97045.68;104708;1260;97895;-81
2023/09/12 09:20:32;;;;;;;11.60;7.50;;;;;;;30.47;48.83;97046.39;104514;1274;102462;-83
2023/09/12 09:23:06;;;;;;;9.20;7.50;;;;;;;30.54;47.64;97047.77;104656;1260;101185;-80
2023/09/12 09:25:34;;;;;;;10.00;7.00;;;;;;;30.58;47.25;97046.77;104647;1267;99068;-82
2023/09/12 09:28:05;;;;;;;11.30;6.90;;;;;;;30.60;46.57;97044.30;104637;1263;99247;-80
2023/09/12 09:30:47;;;;;;;11.80;7.20;;;;;;;30.66;46.51;97041.78;104653;1271;98451;-81
2023/09/12 09:33:14;;;;;;;;;;;;;;;30.74;46.26;97042.36;104713;1257;102604;-81
2023/09/12 09:35:43;;;;;;;8.40;6.90;;;;;;;30.79;46.05;97038.84;104660;1262;100109;-81
2023/09/12 09:38:16;;;;;;;12.90;7.00;;;;;;;30.81;45.65;97041.36;104512;1277;101105;-81
2023/09/12 09:40:44;;;;;;;9.70;6.40;;;;;;;30.86;45.41;97039.53;104733;1260;99232;-80
2023/09/12 09:43:13;;;;;;;14.20;7.00;;;;;;;30.90;45.41;97038.71;104750;1262;98379;-80
2023/09/12 09:45:47;;;;;;;8.60;7.20;;;;;;;30.95;45.39;97038.88;104719;1260;103125;-79
2023/09/12 09:48:23;;;;;;;10.00;7.00;;;;;;;31.04;45.10;97035.48;104684;1259;101307;-80
2023/09/12 09:50:52;;;;;;;7.90;7.10;;;;;;;31.12;44.51;97034.21;104465;1265;99928;-79
2023/09/12 09:53:27;;;;;;;9.60;7.40;;;;;;;31.16;44.65;97030.49;104742;1262;97953;-81
2023/09/12 09:56:12;;;;;;;8.20;7.40;;;;;;;31.22;44.11;97031.00;104686;1259;98427;-80
2023/09/12 09:58:52;;;;;;;10.20;6.70;;;;;;;31.25;43.85;97026.32;104468;1274;103715;-80
2023/09/12 10:01:22;;;;;;;10.10;6.30;;;;;;;31.31;43.25;97025.34;104397;1268;100277;-81
2023/09/12 10:03:52;;;;;;;11.10;6.80;;;;;;;31.29;43.35;97026.16;104508;1273;100184;-86
2023/09/12 10:06:20;;;;;;;8.30;6.10;;;;;;;31.34;42.63;97025.61;104634;1263;97918;-88
2023/09/12 10:08:53;;;;;;;11.50;7.50;;;;;;;31.41;43.24;97023.89;104693;1260;99428;-89
2023/09/12 10:11:25;;;;;;;8.20;6.70;;;;;;;31.50;42.97;97023.75;104746;1260;103759;-89
2023/09/12 10:13:58;;;;;;;12.40;6.50;;;;;;;31.59;42.28;97019.92;104762;1262;100368;-89
2023/09/12 10:16:37;;;;;;;7.10;6.40;;;;;;;31.64;42.51;97016.27;104651;1263;98617;-89
2023/09/12 10:19:10;;;;;;;13.40;7.00;;;;;;;31.70;42.17;97009.75;104642;1262;99385;-91
2023/09/12 10:21:43;;;;;;;7.00;6.30;;;;;;;31.75;41.87;97007.96;104705;1259;98743;-81
2023/09/12 10:24:11;;;;;;;8.30;6.50;;;;;;;31.80;41.60;97004.73;104462;1274;103553;-79
2023/09/12 10:26:43;;;;;;;6.60;6.10;;;;;;;31.77;40.81;97005.55;104749;1259;100365;-80
2023/09/12 10:29:15;;;;;;;6.80;6.20;;;;;;;31.71;40.53;97004.10;104762;1275;100047;-80
2023/09/12 10:31:43;;;;;;;8.90;6.70;;;;;;;31.70;41.24;97006.70;104683;1259;98840;-82
2023/09/12 10:34:13;;;;;;;8.00;6.30;;;;;;;31.68;40.64;97004.04;104678;1259;98457;-81
2023/09/12 10:36:42;;;;;;;8.80;6.70;;;;;;;31.67;40.86;97001.14;104442;1264;103597;-82
2023/09/12 10:39:12;;;;;;;8.70;6.90;;;;;;;31.67;41.09;97000.55;104689;1261;100418;-80
2023/09/12 10:41:41;;;;;;;11.60;6.90;;;;;;;31.61;40.83;96997.67;104708;1256;98635;-80
2023/09/12 10:44:17;;;;;;;7.90;6.80;;;;;;;31.59;40.75;96994.52;104807;1263;98018;-79
2023/09/12 10:46:47;;;;;;;7.60;6.70;;;;;;;31.53;40.22;97000.34;104667;1260;98396;-79
2023/09/12 10:49:16;;;;;;;10.40;6.30;;;;;;;31.48;40.52;96997.41;104572;1277;104502;-82
2023/09/12 10:51:46;;;;;;;8.00;7.20;;;;;;;31.46;40.57;96999.35;104493;1276;110113;-80
2023/09/12 10:54:16;;;;;;;9.20;6.50;;;;;;;31.37;40.43;96998.52;104736;1259;98694;-79
2023/09/12 10:56:44;;;;;;;8.10;6.90;;;;;;;31.26;41.18;96995.91;104580;1262;98164;-80
2023/09/12 10:59:14;;;;;;;7.30;6.60;;;;;;;31.17;41.54;96998.20;104708;1260;99747;-80
2023/09/12 11:01:46;;;;;;;8.00;7.00;;;;;;;30.99;41.94;96996.54;104798;1260;103092;-81
2023/09/12 11:04:23;;;;;;;8.00;6.80;;;;;;;30.89;42.00;96996.06;104355;1257;101348;-80
2023/09/12 11:06:51;;;;;;;8.80;7.10;;;;;;;30.86;42.12;97000.86;104685;1259;100257;-82
2023/09/12 11:09:23;;;;;;;10.10;7.20;;;;;;;30.79;41.81;96998.16;104788;1260;98043;-81
2023/09/12 11:12:02;;;;;;;8.00;7.00;;;;;;;30.69;42.36;96998.42;104673;1262;97982;-82
2023/09/12 11:14:30;;;;;;;13.30;8.10;;;;;;;30.54;41.50;96997.23;104614;1262;102334;-79
2023/09/12 11:17:22;;;;;;;7.70;6.80;;;;;;;30.44;41.51;96995.86;104371;1265;100536;-81